sensor_id;sensor_type;location;lat;lon;timestamp;temperature;humidity
20231;DHT22;10274;49.022;9.338;2024-02-23T00:01:20;7.80;1.00
20231;DHT22;10274;49.022;9.338;2024-02-23T00:03:46;7.70;1.00
20231;DHT22;10274;49.022;9.338;2024-02-23T00:06:13;7.70;1.00
20231;DHT22;10274;49.022;9.338;2024-02-23T00:08:40;7.70;1.00
20231;DHT22;10274;49.022;9.338;2024-02-23T00:11:07;7.70;1.00
20231;DHT22;10274;49.022;9.338;2024-02-23T00:13:35;7.80;1.00
20231;DHT22;10274;49.022;9.338;2024-02-23T00:16:02;7.70;1.00
20231;DHT22;10274;49.022;9.338;2024-02-23T00:18:29;7.70;1.00
20231;DHT22;10274;49.022;9.338;2024-02-23T00:20:56;7.70;1.00
20231;DHT22;10274;49.022;9.338;2024-02-23T00:23:22;7.70;1.00
20231;DHT22;10274;49.022;9.338;2024-02-23T00:25:49;7.60;1.00
20231;DHT22;10274;49.022;9.338;2024-02-23T00:28:16;7.60;1.00
20231;DHT22;10274;49.022;9.338;2024-02-23T00:30:44;7.60;1.00
20231;DHT22;10274;49.022;9.338;2024-02-23T00:33:11;7.60;1.00
20231;DHT22;10274;49.022;9.338;2024-02-23T00:35:37;7.60;1.00
20231;DHT22;10274;49.022;9.338;2024-02-23T00:38:04;7.60;1.00
20231;DHT22;10274;49.022;9.338;2024-02-23T00:40:32;7.60;1.00
20231;DHT22;10274;49.022;9.338;2024-02-23T00:42:59;7.50;1.00
20231;DHT22;10274;49.022;9.338;2024-02-23T00:45:26;7.60;1.00
20231;DHT22;10274;49.022;9.338;2024-02-23T00:47:54;7.60;1.00
20231;DHT22;10274;49.022;9.338;2024-02-23T00:50:22;7.60;1.00
20231;DHT22;10274;49.022;9.338;2024-02-23T00:52:51;7.60;1.00
20231;DHT22;10274;49.022;9.338;2024-02-23T00:55:18;7.70;1.00
20231;DHT22;10274;49.022;9.338;2024-02-23T00:57:45;7.60;1.00
20231;DHT22;10274;49.022;9.338;2024-02-23T01:00:12;7.60;1.00
20231;DHT22;10274;49.022;9.338;2024-02-23T01:02:40;7.50;1.00
20231;DHT22;10274;49.022;9.338;2024-02-23T01:05:08;7.60;1.00
20231;DHT22;10274;49.022;9.338;2024-02-23T01:07:36;7.50;1.00
20231;DHT22;10274;49.022;9.338;2024-02-23T01:10:03;7.50;1.00
20231;DHT22;10274;49.022;9.338;2024-02-23T01:12:29;7.50;1.00
20231;DHT22;10274;49.022;9.338;2024-02-23T01:14:56;7.50;1.00
20231;DHT22;10274;49.022;9.338;2024-02-23T01:17:23;7.50;1.00
20231;DHT22;10274;49.022;9.338;2024-02-23T01:19:49;7.50;1.00
20231;DHT22;10274;49.022;9.338;2024-02-23T01:22:18;7.50;1.00
20231;DHT22;10274;49.022;9.338;2024-02-23T01:24:45;7.40;1.00
20231;DHT22;10274;49.022;9.338;2024-02-23T01:27:12;7.40;1.00
20231;DHT22;10274;49.022;9.338;2024-02-23T01:29:38;7.40;1.00
20231;DHT22;10274;49.022;9.338;2024-02-23T01:32:05;7.40;1.00
20231;DHT22;10274;49.022;9.338;2024-02-23T01:34:31;7.40;1.00
20231;DHT22;10274;49.022;9.338;2024-02-23T01:36:59;7.40;1.00
20231;DHT22;10274;49.022;9.338;2024-02-23T01:39:27;7.40;1.00
20231;DHT22;10274;49.022;9.338;2024-02-23T01:41:53;7.40;1.00
20231;DHT22;10274;49.022;9.338;2024-02-23T01:44:20;7.30;1.00
20231;DHT22;10274;49.022;9.338;2024-02-23T01:46:47;7.40;1.00
20231;DHT22;10274;49.022;9.338;2024-02-23T01:49:14;7.40;1.00
20231;DHT22;10274;49.022;9.338;2024-02-23T01:51:41;7.40;1.00
20231;DHT22;10274;49.022;9.338;2024-02-23T01:54:08;7.30;1.00
20231;DHT22;10274;49.022;9.338;2024-02-23T01:56:37;7.30;1.00
20231;DHT22;10274;49.022;9.338;2024-02-23T01:59:05;7.20;1.00
20231;DHT22;10274;49.022;9.338;2024-02-23T02:01:32;7.30;1.00
20231;DHT22;10274;49.022;9.338;2024-02-23T02:03:59;7.20;1.00
20231;DHT22;10274;49.022;9.338;2024-02-23T02:06:25;7.20;1.00
20231;DHT22;10274;49.022;9.338;2024-02-23T02:08:52;7.20;1.00
20231;DHT22;10274;49.022;9.338;2024-02-23T02:11:19;7.20;1.00
20231;DHT22;10274;49.022;9.338;2024-02-23T02:13:47;7.30;1.00
20231;DHT22;10274;49.022;9.338;2024-02-23T02:16:14;7.30;1.00
20231;DHT22;10274;49.022;9.338;2024-02-23T02:18:40;7.30;1.00
20231;DHT22;10274;49.022;9.338;2024-02-23T02:21:07;7.40;1.00
20231;DHT22;10274;49.022;9.338;2024-02-23T02:23:34;7.40;1.00
20231;DHT22;10274;49.022;9.338;2024-02-23T02:26:03;7.30;1.00
20231;DHT22;10274;49.022;9.338;2024-02-23T02:28:30;7.30;1.00
20231;DHT22;10274;49.022;9.338;2024-02-23T02:30:59;7.30;1.00
20231;DHT22;10274;49.022;9.338;2024-02-23T02:33:25;7.30;1.00
20231;DHT22;10274;49.022;9.338;2024-02-23T02:35:52;7.30;1.00
20231;DHT22;10274;49.022;9.338;2024-02-23T02:38:19;7.20;1.00
20231;DHT22;10274;49.022;9.338;2024-02-23T02:40:45;7.20;1.00
20231;DHT22;10274;49.022;9.338;2024-02-23T02:43:12;7.20;1.00
20231;DHT22;10274;49.022;9.338;2024-02-23T02:45:39;7.10;1.00
20231;DHT22;10274;49.022;9.338;2024-02-23T02:48:07;7.10;1.00
20231;DHT22;10274;49.022;9.338;2024-02-23T02:50:34;7.10;1.00
20231;DHT22;10274;49.022;9.338;2024-02-23T02:53:01;7.10;1.00
20231;DHT22;10274;49.022;9.338;2024-02-23T02:55:27;7.00;1.00
20231;DHT22;10274;49.022;9.338;2024-02-23T02:57:54;6.90;1.00
20231;DHT22;10274;49.022;9.338;2024-02-23T03:00:21;6.90;1.00
20231;DHT22;10274;49.022;9.338;2024-02-23T03:02:48;6.90;1.00
20231;DHT22;10274;49.022;9.338;2024-02-23T03:05:16;6.90;1.00
20231;DHT22;10274;49.022;9.338;2024-02-23T03:07:42;6.80;1.00
20231;DHT22;10274;49.022;9.338;2024-02-23T03:10:09;6.80;1.00
20231;DHT22;10274;49.022;9.338;2024-02-23T03:12:36;6.70;1.00
20231;DHT22;10274;49.022;9.338;2024-02-23T03:15:03;6.70;1.00
20231;DHT22;10274;49.022;9.338;2024-02-23T03:17:30;6.80;1.00
20231;DHT22;10274;49.022;9.338;2024-02-23T03:19:58;6.70;1.00
20231;DHT22;10274;49.022;9.338;2024-02-23T03:22:26;6.70;1.00
20231;DHT22;10274;49.022;9.338;2024-02-23T03:24:53;6.70;1.00
20231;DHT22;10274;49.022;9.338;2024-02-23T03:27:20;6.70;1.00
20231;DHT22;10274;49.022;9.338;2024-02-23T03:29:53;6.70;1.00
20231;DHT22;10274;49.022;9.338;2024-02-23T03:32:20;6.70;1.00
20231;DHT22;10274;49.022;9.338;2024-02-23T03:34:47;6.70;1.00
20231;DHT22;10274;49.022;9.338;2024-02-23T03:37:13;6.70;1.00
20231;DHT22;10274;49.022;9.338;2024-02-23T03:39:41;6.70;1.00
20231;DHT22;10274;49.022;9.338;2024-02-23T03:42:08;6.70;1.00
20231;DHT22;10274;49.022;9.338;2024-02-23T03:44:35;6.80;1.00
20231;DHT22;10274;49.022;9.338;2024-02-23T03:47:01;6.70;1.00
20231;DHT22;10274;49.022;9.338;2024-02-23T03:49:28;6.80;1.00
20231;DHT22;10274;49.022;9.338;2024-02-23T03:51:55;6.70;1.00
20231;DHT22;10274;49.022;9.338;2024-02-23T03:54:21;6.70;1.00
20231;DHT22;10274;49.022;9.338;2024-02-23T03:56:49;6.70;1.00
20231;DHT22;10274;49.022;9.338;2024-02-23T03:59:16;6.80;1.00
20231;DHT22;10274;49.022;9.338;2024-02-23T04:01:43;6.80;1.00
20231;DHT22;10274;49.022;9.338;2024-02-23T04:04:10;6.70;1.00
20231;DHT22;10274;49.022;9.338;2024-02-23T04:06:37;6.70;1.00
20231;DHT22;10274;49.022;9.338;2024-02-23T04:09:04;6.70;1.00
20231;DHT22;10274;49.022;9.338;2024-02-23T04:11:31;6.80;1.00
20231;DHT22;10274;49.022;9.338;2024-02-23T04:13:59;6.80;1.00
20231;DHT22;10274;49.022;9.338;2024-02-23T04:16:26;6.80;1.00
20231;DHT22;10274;49.022;9.338;2024-02-23T04:18:53;6.70;1.00
20231;DHT22;10274;49.022;9.338;2024-02-23T04:21:21;6.80;1.00
20231;DHT22;10274;49.022;9.338;2024-02-23T04:23:48;6.80;1.00
20231;DHT22;10274;49.022;9.338;2024-02-23T04:26:15;6.70;1.00
20231;DHT22;10274;49.022;9.338;2024-02-23T04:28:42;6.70;1.00
20231;DHT22;10274;49.022;9.338;2024-02-23T04:31:10;6.60;1.00
20231;DHT22;10274;49.022;9.338;2024-02-23T04:33:37;6.70;1.00
20231;DHT22;10274;49.022;9.338;2024-02-23T04:36:05;6.70;1.00
20231;DHT22;10274;49.022;9.338;2024-02-23T04:38:32;6.60;1.00
20231;DHT22;10274;49.022;9.338;2024-02-23T04:41:02;6.60;1.00
20231;DHT22;10274;49.022;9.338;2024-02-23T04:43:29;6.60;1.00
20231;DHT22;10274;49.022;9.338;2024-02-23T04:45:56;6.60;1.00
20231;DHT22;10274;49.022;9.338;2024-02-23T04:48:24;6.70;1.00
20231;DHT22;10274;49.022;9.338;2024-02-23T04:50:51;6.70;1.00
20231;DHT22;10274;49.022;9.338;2024-02-23T04:53:17;6.60;1.00
20231;DHT22;10274;49.022;9.338;2024-02-23T04:55:44;6.60;1.00
20231;DHT22;10274;49.022;9.338;2024-02-23T04:58:11;6.60;1.00
20231;DHT22;10274;49.022;9.338;2024-02-23T05:00:38;6.60;1.00
20231;DHT22;10274;49.022;9.338;2024-02-23T05:03:05;6.60;1.00
20231;DHT22;10274;49.022;9.338;2024-02-23T05:05:35;6.60;1.00
20231;DHT22;10274;49.022;9.338;2024-02-23T05:08:02;6.50;1.00
20231;DHT22;10274;49.022;9.338;2024-02-23T05:10:29;6.50;1.00
20231;DHT22;10274;49.022;9.338;2024-02-23T05:12:56;6.60;1.00
20231;DHT22;10274;49.022;9.338;2024-02-23T05:15:22;6.60;1.00
20231;DHT22;10274;49.022;9.338;2024-02-23T05:17:49;6.50;1.00
20231;DHT22;10274;49.022;9.338;2024-02-23T05:20:16;6.60;1.00
20231;DHT22;10274;49.022;9.338;2024-02-23T05:22:44;6.50;1.00
20231;DHT22;10274;49.022;9.338;2024-02-23T05:25:11;6.50;1.00
20231;DHT22;10274;49.022;9.338;2024-02-23T05:27:37;6.60;1.00
20231;DHT22;10274;49.022;9.338;2024-02-23T05:30:05;6.60;1.00
20231;DHT22;10274;49.022;9.338;2024-02-23T05:32:33;6.50;1.00
20231;DHT22;10274;49.022;9.338;2024-02-23T05:34:59;6.50;1.00
20231;DHT22;10274;49.022;9.338;2024-02-23T05:37:26;6.50;1.00
20231;DHT22;10274;49.022;9.338;2024-02-23T05:39:54;6.40;1.00
20231;DHT22;10274;49.022;9.338;2024-02-23T05:42:21;6.40;1.00
20231;DHT22;10274;49.022;9.338;2024-02-23T05:44:48;6.50;1.00
20231;DHT22;10274;49.022;9.338;2024-02-23T05:47:15;6.40;1.00
20231;DHT22;10274;49.022;9.338;2024-02-23T05:49:41;6.40;1.00
20231;DHT22;10274;49.022;9.338;2024-02-23T05:52:08;6.50;1.00
20231;DHT22;10274;49.022;9.338;2024-02-23T05:54:35;6.50;1.00
20231;DHT22;10274;49.022;9.338;2024-02-23T05:57:03;6.40;1.00
20231;DHT22;10274;49.022;9.338;2024-02-23T05:59:30;6.40;1.00
20231;DHT22;10274;49.022;9.338;2024-02-23T06:01:57;6.40;1.00
20231;DHT22;10274;49.022;9.338;2024-02-23T06:04:24;6.30;1.00
20231;DHT22;10274;49.022;9.338;2024-02-23T06:06:51;6.30;1.00
20231;DHT22;10274;49.022;9.338;2024-02-23T06:09:17;6.40;1.00
20231;DHT22;10274;49.022;9.338;2024-02-23T06:11:45;6.40;1.00
20231;DHT22;10274;49.022;9.338;2024-02-23T06:14:13;6.30;1.00
20231;DHT22;10274;49.022;9.338;2024-02-23T06:16:40;6.30;1.00
20231;DHT22;10274;49.022;9.338;2024-02-23T06:19:06;6.30;1.00
20231;DHT22;10274;49.022;9.338;2024-02-23T06:21:33;6.30;1.00
20231;DHT22;10274;49.022;9.338;2024-02-23T06:24:00;6.20;1.00
20231;DHT22;10274;49.022;9.338;2024-02-23T06:26:28;6.20;1.00
20231;DHT22;10274;49.022;9.338;2024-02-23T06:28:54;6.20;1.00
20231;DHT22;10274;49.022;9.338;2024-02-23T06:31:22;6.30;1.00
20231;DHT22;10274;49.022;9.338;2024-02-23T06:33:49;6.30;1.00
20231;DHT22;10274;49.022;9.338;2024-02-23T06:36:17;6.30;1.00
20231;DHT22;10274;49.022;9.338;2024-02-23T06:38:43;6.30;1.00
20231;DHT22;10274;49.022;9.338;2024-02-23T06:41:11;6.20;1.00
20231;DHT22;10274;49.022;9.338;2024-02-23T06:43:37;6.20;1.00
20231;DHT22;10274;49.022;9.338;2024-02-23T06:46:06;6.30;1.00
20231;DHT22;10274;49.022;9.338;2024-02-23T06:48:35;6.40;1.00
20231;DHT22;10274;49.022;9.338;2024-02-23T06:51:02;6.30;1.00
20231;DHT22;10274;49.022;9.338;2024-02-23T06:53:29;6.30;1.00
20231;DHT22;10274;49.022;9.338;2024-02-23T06:55:56;6.40;1.00
20231;DHT22;10274;49.022;9.338;2024-02-23T06:58:24;6.50;1.00
20231;DHT22;10274;49.022;9.338;2024-02-23T07:00:51;6.40;1.00
20231;DHT22;10274;49.022;9.338;2024-02-23T07:03:17;6.30;1.00
20231;DHT22;10274;49.022;9.338;2024-02-23T07:05:46;6.40;1.00
20231;DHT22;10274;49.022;9.338;2024-02-23T07:08:13;6.30;1.00
20231;DHT22;10274;49.022;9.338;2024-02-23T07:10:40;6.30;1.00
20231;DHT22;10274;49.022;9.338;2024-02-23T07:13:07;6.30;1.00
20231;DHT22;10274;49.022;9.338;2024-02-23T07:15:34;6.30;1.00
20231;DHT22;10274;49.022;9.338;2024-02-23T07:18:03;6.40;1.00
20231;DHT22;10274;49.022;9.338;2024-02-23T07:20:30;6.30;1.00
20231;DHT22;10274;49.022;9.338;2024-02-23T07:22:58;6.40;1.00
20231;DHT22;10274;49.022;9.338;2024-02-23T07:25:25;6.30;1.00
20231;DHT22;10274;49.022;9.338;2024-02-23T07:27:51;6.30;1.00
20231;DHT22;10274;49.022;9.338;2024-02-23T07:30:18;6.20;1.00
20231;DHT22;10274;49.022;9.338;2024-02-23T07:32:45;6.30;1.00
20231;DHT22;10274;49.022;9.338;2024-02-23T07:35:12;6.30;1.00
20231;DHT22;10274;49.022;9.338;2024-02-23T07:37:39;6.30;1.00
20231;DHT22;10274;49.022;9.338;2024-02-23T07:40:08;6.40;1.00
20231;DHT22;10274;49.022;9.338;2024-02-23T07:42:35;6.50;1.00
20231;DHT22;10274;49.022;9.338;2024-02-23T07:45:02;6.40;1.00
20231;DHT22;10274;49.022;9.338;2024-02-23T07:47:29;6.30;1.00
20231;DHT22;10274;49.022;9.338;2024-02-23T07:49:56;6.40;1.00
20231;DHT22;10274;49.022;9.338;2024-02-23T07:52:23;6.40;1.00
20231;DHT22;10274;49.022;9.338;2024-02-23T07:54:51;6.40;1.00
20231;DHT22;10274;49.022;9.338;2024-02-23T07:57:19;6.40;1.00
20231;DHT22;10274;49.022;9.338;2024-02-23T07:59:46;6.50;1.00
20231;DHT22;10274;49.022;9.338;2024-02-23T08:02:13;6.60;1.00
20231;DHT22;10274;49.022;9.338;2024-02-23T08:04:40;6.60;1.00
20231;DHT22;10274;49.022;9.338;2024-02-23T08:07:07;6.60;1.00
20231;DHT22;10274;49.022;9.338;2024-02-23T08:09:34;6.60;1.00
20231;DHT22;10274;49.022;9.338;2024-02-23T08:12:01;6.50;1.00
20231;DHT22;10274;49.022;9.338;2024-02-23T08:14:29;6.50;1.00
20231;DHT22;10274;49.022;9.338;2024-02-23T08:16:56;6.40;1.00
20231;DHT22;10274;49.022;9.338;2024-02-23T08:19:22;6.30;1.00
20231;DHT22;10274;49.022;9.338;2024-02-23T08:21:49;6.40;1.00
20231;DHT22;10274;49.022;9.338;2024-02-23T08:24:16;6.40;1.00
20231;DHT22;10274;49.022;9.338;2024-02-23T08:26:43;6.40;1.00
20231;DHT22;10274;49.022;9.338;2024-02-23T08:29:09;6.40;1.00
20231;DHT22;10274;49.022;9.338;2024-02-23T08:31:38;6.50;1.00
20231;DHT22;10274;49.022;9.338;2024-02-23T08:34:04;6.60;1.00
20231;DHT22;10274;49.022;9.338;2024-02-23T08:36:32;6.60;1.00
20231;DHT22;10274;49.022;9.338;2024-02-23T08:38:58;6.70;1.00
20231;DHT22;10274;49.022;9.338;2024-02-23T08:41:25;7.10;1.00
20231;DHT22;10274;49.022;9.338;2024-02-23T08:43:52;6.90;1.00
20231;DHT22;10274;49.022;9.338;2024-02-23T08:46:20;6.90;1.00
20231;DHT22;10274;49.022;9.338;2024-02-23T08:48:48;6.80;1.00
20231;DHT22;10274;49.022;9.338;2024-02-23T08:51:15;6.70;1.00
20231;DHT22;10274;49.022;9.338;2024-02-23T08:53:41;6.70;1.00
20231;DHT22;10274;49.022;9.338;2024-02-23T08:56:08;6.70;1.00
20231;DHT22;10274;49.022;9.338;2024-02-23T08:58:35;6.70;1.00
20231;DHT22;10274;49.022;9.338;2024-02-23T09:01:02;6.70;1.00
20231;DHT22;10274;49.022;9.338;2024-02-23T09:03:29;6.70;1.00
20231;DHT22;10274;49.022;9.338;2024-02-23T09:05:58;6.80;1.00
20231;DHT22;10274;49.022;9.338;2024-02-23T09:08:25;6.90;1.00
20231;DHT22;10274;49.022;9.338;2024-02-23T09:10:52;6.90;1.00
20231;DHT22;10274;49.022;9.338;2024-02-23T09:13:19;6.90;1.00
20231;DHT22;10274;49.022;9.338;2024-02-23T09:15:46;7.00;1.00
20231;DHT22;10274;49.022;9.338;2024-02-23T09:18:12;7.00;1.00
20231;DHT22;10274;49.022;9.338;2024-02-23T09:20:39;7.00;1.00
20231;DHT22;10274;49.022;9.338;2024-02-23T09:23:08;7.10;1.00
20231;DHT22;10274;49.022;9.338;2024-02-23T09:25:34;7.10;1.00
20231;DHT22;10274;49.022;9.338;2024-02-23T09:28:01;7.00;1.00
20231;DHT22;10274;49.022;9.338;2024-02-23T09:30:28;7.10;1.00
20231;DHT22;10274;49.022;9.338;2024-02-23T09:32:55;7.20;1.00
20231;DHT22;10274;49.022;9.338;2024-02-23T09:35:21;7.20;1.00
20231;DHT22;10274;49.022;9.338;2024-02-23T09:37:48;7.30;1.00
20231;DHT22;10274;49.022;9.338;2024-02-23T09:40:16;7.40;1.00
20231;DHT22;10274;49.022;9.338;2024-02-23T09:42:46;7.40;1.00
20231;DHT22;10274;49.022;9.338;2024-02-23T09:45:15;7.40;1.00
20231;DHT22;10274;49.022;9.338;2024-02-23T09:47:43;7.30;1.00
20231;DHT22;10274;49.022;9.338;2024-02-23T09:50:12;7.50;1.00
20231;DHT22;10274;49.022;9.338;2024-02-23T09:52:40;7.60;1.00
20231;DHT22;10274;49.022;9.338;2024-02-23T09:55:07;7.80;1.00
20231;DHT22;10274;49.022;9.338;2024-02-23T09:57:37;7.80;1.00
20231;DHT22;10274;49.022;9.338;2024-02-23T10:00:05;7.80;1.00
20231;DHT22;10274;49.022;9.338;2024-02-23T10:02:36;8.00;1.00
20231;DHT22;10274;49.022;9.338;2024-02-23T10:05:03;8.00;1.00
20231;DHT22;10274;49.022;9.338;2024-02-23T10:07:30;8.20;1.00
20231;DHT22;10274;49.022;9.338;2024-02-23T10:09:56;7.90;1.00
20231;DHT22;10274;49.022;9.338;2024-02-23T10:12:24;7.70;1.00
20231;DHT22;10274;49.022;9.338;2024-02-23T10:14:52;8.00;1.00
20231;DHT22;10274;49.022;9.338;2024-02-23T10:17:20;8.40;1.00
20231;DHT22;10274;49.022;9.338;2024-02-23T10:19:47;8.50;1.00
20231;DHT22;10274;49.022;9.338;2024-02-23T10:22:14;8.30;1.00
20231;DHT22;10274;49.022;9.338;2024-02-23T10:24:42;8.70;1.00
20231;DHT22;10274;49.022;9.338;2024-02-23T10:27:09;8.60;1.00
20231;DHT22;10274;49.022;9.338;2024-02-23T10:29:36;8.20;1.00
20231;DHT22;10274;49.022;9.338;2024-02-23T10:32:05;7.80;1.00
20231;DHT22;10274;49.022;9.338;2024-02-23T10:34:37;8.00;1.00
20231;DHT22;10274;49.022;9.338;2024-02-23T10:37:06;7.70;1.00
20231;DHT22;10274;49.022;9.338;2024-02-23T10:39:36;7.90;1.00
20231;DHT22;10274;49.022;9.338;2024-02-23T10:42:04;7.90;1.00
20231;DHT22;10274;49.022;9.338;2024-02-23T10:44:35;7.90;1.00
20231;DHT22;10274;49.022;9.338;2024-02-23T10:47:04;7.70;1.00
20231;DHT22;10274;49.022;9.338;2024-02-23T10:49:31;7.60;1.00
20231;DHT22;10274;49.022;9.338;2024-02-23T10:51:58;7.70;1.00
20231;DHT22;10274;49.022;9.338;2024-02-23T10:54:26;7.80;1.00
20231;DHT22;10274;49.022;9.338;2024-02-23T10:56:53;7.90;1.00
20231;DHT22;10274;49.022;9.338;2024-02-23T10:59:21;8.00;1.00
20231;DHT22;10274;49.022;9.338;2024-02-23T11:01:51;8.00;1.00
20231;DHT22;10274;49.022;9.338;2024-02-23T11:04:19;8.10;1.00
20231;DHT22;10274;49.022;9.338;2024-02-23T11:06:50;8.20;1.00
20231;DHT22;10274;49.022;9.338;2024-02-23T11:09:21;8.30;1.00
20231;DHT22;10274;49.022;9.338;2024-02-23T11:11:55;8.40;1.00
20231;DHT22;10274;49.022;9.338;2024-02-23T11:14:32;8.10;1.00
20231;DHT22;10274;49.022;9.338;2024-02-23T11:16:59;8.10;1.00
20231;DHT22;10274;49.022;9.338;2024-02-23T11:19:34;8.10;1.00
20231;DHT22;10274;49.022;9.338;2024-02-23T11:22:02;7.90;1.00
20231;DHT22;10274;49.022;9.338;2024-02-23T11:24:29;8.00;1.00
20231;DHT22;10274;49.022;9.338;2024-02-23T11:26:57;8.30;1.00
20231;DHT22;10274;49.022;9.338;2024-02-23T11:29:26;8.60;1.00
20231;DHT22;10274;49.022;9.338;2024-02-23T11:31:55;8.30;1.00
20231;DHT22;10274;49.022;9.338;2024-02-23T11:34:26;8.10;1.00
20231;DHT22;10274;49.022;9.338;2024-02-23T11:36:55;8.00;1.00
20231;DHT22;10274;49.022;9.338;2024-02-23T11:39:23;8.10;1.00
20231;DHT22;10274;49.022;9.338;2024-02-23T11:41:51;8.20;1.00
20231;DHT22;10274;49.022;9.338;2024-02-23T11:44:17;8.30;1.00
20231;DHT22;10274;49.022;9.338;2024-02-23T11:46:46;8.40;1.00
20231;DHT22;10274;49.022;9.338;2024-02-23T11:49:14;8.40;1.00
20231;DHT22;10274;49.022;9.338;2024-02-23T11:51:40;8.40;1.00
20231;DHT22;10274;49.022;9.338;2024-02-23T11:54:09;8.50;1.00
20231;DHT22;10274;49.022;9.338;2024-02-23T11:56:35;8.50;1.00
20231;DHT22;10274;49.022;9.338;2024-02-23T11:59:02;8.50;1.00
20231;DHT22;10274;49.022;9.338;2024-02-23T12:01:29;8.60;1.00
20231;DHT22;10274;49.022;9.338;2024-02-23T12:03:57;8.60;1.00
20231;DHT22;10274;49.022;9.338;2024-02-23T12:06:24;8.60;1.00
20231;DHT22;10274;49.022;9.338;2024-02-23T12:08:54;8.70;1.00
20231;DHT22;10274;49.022;9.338;2024-02-23T12:11:23;8.90;1.00
20231;DHT22;10274;49.022;9.338;2024-02-23T12:13:50;8.90;1.00
20231;DHT22;10274;49.022;9.338;2024-02-23T12:16:17;8.70;1.00
20231;DHT22;10274;49.022;9.338;2024-02-23T12:18:44;8.80;1.00
20231;DHT22;10274;49.022;9.338;2024-02-23T12:21:11;8.70;1.00
20231;DHT22;10274;49.022;9.338;2024-02-23T12:23:40;8.60;1.00
20231;DHT22;10274;49.022;9.338;2024-02-23T12:26:07;8.60;1.00
20231;DHT22;10274;49.022;9.338;2024-02-23T12:28:35;8.60;1.00
20231;DHT22;10274;49.022;9.338;2024-02-23T12:31:03;8.80;1.00
20231;DHT22;10274;49.022;9.338;2024-02-23T12:33:31;8.90;1.00
20231;DHT22;10274;49.022;9.338;2024-02-23T12:35:59;8.90;1.00
20231;DHT22;10274;49.022;9.338;2024-02-23T12:38:26;8.90;1.00
20231;DHT22;10274;49.022;9.338;2024-02-23T12:40:53;8.90;1.00
20231;DHT22;10274;49.022;9.338;2024-02-23T12:43:20;8.60;1.00
20231;DHT22;10274;49.022;9.338;2024-02-23T12:45:51;8.60;1.00
20231;DHT22;10274;49.022;9.338;2024-02-23T12:48:18;8.60;1.00
20231;DHT22;10274;49.022;9.338;2024-02-23T12:50:47;8.50;1.00
20231;DHT22;10274;49.022;9.338;2024-02-23T12:53:31;8.50;1.00
20231;DHT22;10274;49.022;9.338;2024-02-23T12:55:59;8.40;1.00
20231;DHT22;10274;49.022;9.338;2024-02-23T12:58:26;8.40;1.00
20231;DHT22;10274;49.022;9.338;2024-02-23T13:00:55;8.40;1.00
20231;DHT22;10274;49.022;9.338;2024-02-23T13:03:22;8.50;1.00
20231;DHT22;10274;49.022;9.338;2024-02-23T13:05:49;8.50;1.00
20231;DHT22;10274;49.022;9.338;2024-02-23T13:08:17;8.50;1.00
20231;DHT22;10274;49.022;9.338;2024-02-23T13:10:43;8.50;1.00
20231;DHT22;10274;49.022;9.338;2024-02-23T13:13:10;8.50;1.00
20231;DHT22;10274;49.022;9.338;2024-02-23T13:15:38;8.50;1.00
20231;DHT22;10274;49.022;9.338;2024-02-23T13:18:06;8.60;1.00
20231;DHT22;10274;49.022;9.338;2024-02-23T13:20:33;8.60;1.00
20231;DHT22;10274;49.022;9.338;2024-02-23T13:23:00;8.50;1.00
20231;DHT22;10274;49.022;9.338;2024-02-23T13:25:27;8.60;1.00
20231;DHT22;10274;49.022;9.338;2024-02-23T13:27:54;8.70;1.00
20231;DHT22;10274;49.022;9.338;2024-02-23T13:30:21;8.80;1.00
20231;DHT22;10274;49.022;9.338;2024-02-23T13:32:47;8.70;1.00
20231;DHT22;10274;49.022;9.338;2024-02-23T13:35:15;8.80;1.00
20231;DHT22;10274;49.022;9.338;2024-02-23T13:37:42;8.80;1.00
20231;DHT22;10274;49.022;9.338;2024-02-23T13:40:09;8.80;1.00
20231;DHT22;10274;49.022;9.338;2024-02-23T13:42:36;8.80;1.00
20231;DHT22;10274;49.022;9.338;2024-02-23T13:45:05;8.90;1.00
20231;DHT22;10274;49.022;9.338;2024-02-23T13:47:33;8.90;1.00
20231;DHT22;10274;49.022;9.338;2024-02-23T13:49:59;9.10;1.00
20231;DHT22;10274;49.022;9.338;2024-02-23T13:52:28;9.10;1.00
20231;DHT22;10274;49.022;9.338;2024-02-23T13:54:55;9.20;1.00
20231;DHT22;10274;49.022;9.338;2024-02-23T13:57:22;9.20;1.00
20231;DHT22;10274;49.022;9.338;2024-02-23T13:59:49;9.30;1.00
20231;DHT22;10274;49.022;9.338;2024-02-23T14:02:16;9.10;1.00
20231;DHT22;10274;49.022;9.338;2024-02-23T14:04:44;9.20;1.00
20231;DHT22;10274;49.022;9.338;2024-02-23T14:07:11;9.20;1.00
20231;DHT22;10274;49.022;9.338;2024-02-23T14:09:39;9.10;1.00
20231;DHT22;10274;49.022;9.338;2024-02-23T14:12:07;8.90;1.00
20231;DHT22;10274;49.022;9.338;2024-02-23T14:14:34;9.10;1.00
20231;DHT22;10274;49.022;9.338;2024-02-23T14:17:00;9.10;1.00
20231;DHT22;10274;49.022;9.338;2024-02-23T14:19:27;9.00;1.00
20231;DHT22;10274;49.022;9.338;2024-02-23T14:21:54;9.00;1.00
20231;DHT22;10274;49.022;9.338;2024-02-23T14:24:20;8.90;1.00
20231;DHT22;10274;49.022;9.338;2024-02-23T14:26:48;8.90;1.00
20231;DHT22;10274;49.022;9.338;2024-02-23T14:29:15;9.00;1.00
20231;DHT22;10274;49.022;9.338;2024-02-23T14:31:43;9.00;1.00
20231;DHT22;10274;49.022;9.338;2024-02-23T14:34:09;9.00;1.00
20231;DHT22;10274;49.022;9.338;2024-02-23T14:36:36;9.00;1.00
20231;DHT22;10274;49.022;9.338;2024-02-23T14:39:03;9.10;1.00
20231;DHT22;10274;49.022;9.338;2024-02-23T14:41:30;9.80;1.00
20231;DHT22;10274;49.022;9.338;2024-02-23T14:43:59;9.50;1.00
20231;DHT22;10274;49.022;9.338;2024-02-23T14:46:25;9.30;1.00
20231;DHT22;10274;49.022;9.338;2024-02-23T14:48:52;9.30;1.00
20231;DHT22;10274;49.022;9.338;2024-02-23T14:51:19;9.10;1.00
20231;DHT22;10274;49.022;9.338;2024-02-23T14:53:46;9.00;1.00
20231;DHT22;10274;49.022;9.338;2024-02-23T14:56:12;9.10;1.00
20231;DHT22;10274;49.022;9.338;2024-02-23T14:58:39;9.10;1.00
20231;DHT22;10274;49.022;9.338;2024-02-23T15:01:07;9.00;1.00
20231;DHT22;10274;49.022;9.338;2024-02-23T15:03:34;9.00;1.00
20231;DHT22;10274;49.022;9.338;2024-02-23T15:06:01;9.00;1.00
20231;DHT22;10274;49.022;9.338;2024-02-23T15:08:28;8.90;1.00
20231;DHT22;10274;49.022;9.338;2024-02-23T15:10:55;9.10;1.00
20231;DHT22;10274;49.022;9.338;2024-02-23T15:13:22;9.10;1.00
20231;DHT22;10274;49.022;9.338;2024-02-23T15:15:49;9.10;1.00
20231;DHT22;10274;49.022;9.338;2024-02-23T15:18:17;9.10;1.00
20231;DHT22;10274;49.022;9.338;2024-02-23T15:20:44;9.00;1.00
20231;DHT22;10274;49.022;9.338;2024-02-23T15:23:11;8.90;1.00
20231;DHT22;10274;49.022;9.338;2024-02-23T15:25:38;8.90;1.00
20231;DHT22;10274;49.022;9.338;2024-02-23T15:28:05;8.90;1.00
20231;DHT22;10274;49.022;9.338;2024-02-23T15:30:32;8.90;1.00
20231;DHT22;10274;49.022;9.338;2024-02-23T15:32:59;9.00;1.00
20231;DHT22;10274;49.022;9.338;2024-02-23T15:35:27;8.90;1.00
20231;DHT22;10274;49.022;9.338;2024-02-23T15:37:55;8.90;1.00
20231;DHT22;10274;49.022;9.338;2024-02-23T15:40:21;8.90;1.00
20231;DHT22;10274;49.022;9.338;2024-02-23T15:42:48;8.80;1.00
20231;DHT22;10274;49.022;9.338;2024-02-23T15:45:16;8.80;1.00
20231;DHT22;10274;49.022;9.338;2024-02-23T15:47:43;8.80;1.00
20231;DHT22;10274;49.022;9.338;2024-02-23T15:50:10;8.80;1.00
20231;DHT22;10274;49.022;9.338;2024-02-23T15:52:39;8.70;1.00
20231;DHT22;10274;49.022;9.338;2024-02-23T15:55:06;8.70;1.00
20231;DHT22;10274;49.022;9.338;2024-02-23T15:57:36;8.70;1.00
20231;DHT22;10274;49.022;9.338;2024-02-23T16:00:05;8.70;1.00
20231;DHT22;10274;49.022;9.338;2024-02-23T16:02:33;8.70;1.00